sensor_id;sensor_type;location;lat;lon;timestamp;temperature;humidity
12853;DHT22;6495;51.808;7.478;2023-08-30T00:00:06;17.40;99.90
12853;DHT22;6495;51.808;7.478;2023-08-30T00:02:34;17.40;99.90
12853;DHT22;6495;51.808;7.478;2023-08-30T00:05:04;17.40;99.90
12853;DHT22;6495;51.808;7.478;2023-08-30T00:07:32;17.30;99.90
12853;DHT22;6495;51.808;7.478;2023-08-30T00:10:00;17.30;99.90
12853;DHT22;6495;51.808;7.478;2023-08-30T00:12:29;17.30;99.90
12853;DHT22;6495;51.808;7.478;2023-08-30T00:14:58;17.30;99.90
12853;DHT22;6495;51.808;7.478;2023-08-30T00:17:28;17.30;99.90
12853;DHT22;6495;51.808;7.478;2023-08-30T00:19:56;17.20;99.90
12853;DHT22;6495;51.808;7.478;2023-08-30T00:22:25;17.20;99.90
12853;DHT22;6495;51.808;7.478;2023-08-30T00:24:54;17.20;99.90
12853;DHT22;6495;51.808;7.478;2023-08-30T00:27:22;17.20;99.90
12853;DHT22;6495;51.808;7.478;2023-08-30T00:29:50;17.10;99.90
12853;DHT22;6495;51.808;7.478;2023-08-30T00:32:19;17.10;99.90
12853;DHT22;6495;51.808;7.478;2023-08-30T00:34:51;17.10;99.90
12853;DHT22;6495;51.808;7.478;2023-08-30T00:37:19;17.00;99.90
12853;DHT22;6495;51.808;7.478;2023-08-30T00:39:47;16.90;99.90
12853;DHT22;6495;51.808;7.478;2023-08-30T00:42:15;16.90;99.90
12853;DHT22;6495;51.808;7.478;2023-08-30T00:44:44;16.90;99.90
12853;DHT22;6495;51.808;7.478;2023-08-30T00:47:12;16.90;99.90
12853;DHT22;6495;51.808;7.478;2023-08-30T00:49:40;16.90;99.90
12853;DHT22;6495;51.808;7.478;2023-08-30T00:52:11;16.90;99.90
12853;DHT22;6495;51.808;7.478;2023-08-30T00:54:39;16.90;99.90
12853;DHT22;6495;51.808;7.478;2023-08-30T00:57:08;16.90;99.90
12853;DHT22;6495;51.808;7.478;2023-08-30T00:59:37;16.90;99.90
12853;DHT22;6495;51.808;7.478;2023-08-30T01:02:05;16.80;99.90
12853;DHT22;6495;51.808;7.478;2023-08-30T01:04:34;16.80;99.90
12853;DHT22;6495;51.808;7.478;2023-08-30T01:07:03;16.80;99.90
12853;DHT22;6495;51.808;7.478;2023-08-30T01:09:34;16.70;99.90
12853;DHT22;6495;51.808;7.478;2023-08-30T01:12:08;16.70;99.90
12853;DHT22;6495;51.808;7.478;2023-08-30T01:14:45;16.70;99.90
12853;DHT22;6495;51.808;7.478;2023-08-30T01:17:21;16.60;99.90
12853;DHT22;6495;51.808;7.478;2023-08-30T01:19:56;16.60;99.90
12853;DHT22;6495;51.808;7.478;2023-08-30T01:22:38;16.50;99.90
12853;DHT22;6495;51.808;7.478;2023-08-30T01:25:31;16.50;99.90
12853;DHT22;6495;51.808;7.478;2023-08-30T01:28:08;16.50;99.90
12853;DHT22;6495;51.808;7.478;2023-08-30T01:30:40;16.40;99.90
12853;DHT22;6495;51.808;7.478;2023-08-30T01:33:11;16.40;99.90
12853;DHT22;6495;51.808;7.478;2023-08-30T01:35:42;16.40;99.90
12853;DHT22;6495;51.808;7.478;2023-08-30T01:38:11;16.40;99.90
12853;DHT22;6495;51.808;7.478;2023-08-30T01:40:43;16.30;99.90
12853;DHT22;6495;51.808;7.478;2023-08-30T01:43:14;16.30;99.90
12853;DHT22;6495;51.808;7.478;2023-08-30T01:45:44;16.20;99.90
12853;DHT22;6495;51.808;7.478;2023-08-30T01:48:14;16.20;99.90
12853;DHT22;6495;51.808;7.478;2023-08-30T01:50:45;16.20;99.90
12853;DHT22;6495;51.808;7.478;2023-08-30T01:53:15;16.20;99.90
12853;DHT22;6495;51.808;7.478;2023-08-30T01:55:45;16.10;99.90
12853;DHT22;6495;51.808;7.478;2023-08-30T01:58:15;16.10;99.90
12853;DHT22;6495;51.808;7.478;2023-08-30T02:00:43;16.10;99.90
12853;DHT22;6495;51.808;7.478;2023-08-30T02:03:12;16.00;99.90
12853;DHT22;6495;51.808;7.478;2023-08-30T02:05:52;16.00;99.90
12853;DHT22;6495;51.808;7.478;2023-08-30T02:08:35;16.00;99.90
12853;DHT22;6495;51.808;7.478;2023-08-30T02:11:13;16.00;99.90
12853;DHT22;6495;51.808;7.478;2023-08-30T02:13:46;15.90;99.90
12853;DHT22;6495;51.808;7.478;2023-08-30T02:16:17;15.90;99.90
12853;DHT22;6495;51.808;7.478;2023-08-30T02:18:47;15.90;99.90
12853;DHT22;6495;51.808;7.478;2023-08-30T02:21:16;15.90;99.90
12853;DHT22;6495;51.808;7.478;2023-08-30T02:23:49;15.80;99.90
12853;DHT22;6495;51.808;7.478;2023-08-30T02:26:19;15.80;99.90
12853;DHT22;6495;51.808;7.478;2023-08-30T02:28:49;15.80;99.90
12853;DHT22;6495;51.808;7.478;2023-08-30T02:31:17;15.80;99.90
12853;DHT22;6495;51.808;7.478;2023-08-30T02:33:45;15.80;99.90
12853;DHT22;6495;51.808;7.478;2023-08-30T02:36:13;15.80;99.90
12853;DHT22;6495;51.808;7.478;2023-08-30T02:38:41;15.70;99.90
12853;DHT22;6495;51.808;7.478;2023-08-30T02:41:09;15.70;99.90
12853;DHT22;6495;51.808;7.478;2023-08-30T02:43:39;15.70;99.90
12853;DHT22;6495;51.808;7.478;2023-08-30T02:46:09;15.70;99.90
12853;DHT22;6495;51.808;7.478;2023-08-30T02:48:37;15.70;99.90
12853;DHT22;6495;51.808;7.478;2023-08-30T02:51:07;15.70;99.90
12853;DHT22;6495;51.808;7.478;2023-08-30T02:53:35;15.60;99.90
12853;DHT22;6495;51.808;7.478;2023-08-30T02:56:03;15.60;99.90
12853;DHT22;6495;51.808;7.478;2023-08-30T02:58:32;15.60;99.90
12853;DHT22;6495;51.808;7.478;2023-08-30T03:01:01;15.60;99.90
12853;DHT22;6495;51.808;7.478;2023-08-30T03:03:31;15.60;99.90
12853;DHT22;6495;51.808;7.478;2023-08-30T03:06:01;15.50;99.90
12853;DHT22;6495;51.808;7.478;2023-08-30T03:08:30;15.50;99.90
12853;DHT22;6495;51.808;7.478;2023-08-30T03:11:08;15.50;99.90
12853;DHT22;6495;51.808;7.478;2023-08-30T03:13:40;15.50;99.90
12853;DHT22;6495;51.808;7.478;2023-08-30T03:16:12;15.50;99.90
12853;DHT22;6495;51.808;7.478;2023-08-30T03:18:44;15.40;99.90
12853;DHT22;6495;51.808;7.478;2023-08-30T03:21:12;15.40;99.90
12853;DHT22;6495;51.808;7.478;2023-08-30T03:23:41;15.40;99.90
12853;DHT22;6495;51.808;7.478;2023-08-30T03:26:09;15.30;99.90
12853;DHT22;6495;51.808;7.478;2023-08-30T03:28:40;15.30;99.90
12853;DHT22;6495;51.808;7.478;2023-08-30T03:31:13;15.30;99.90
12853;DHT22;6495;51.808;7.478;2023-08-30T03:33:44;15.30;99.90
12853;DHT22;6495;51.808;7.478;2023-08-30T03:36:14;15.20;99.90
12853;DHT22;6495;51.808;7.478;2023-08-30T03:38:44;15.20;99.90
12853;DHT22;6495;51.808;7.478;2023-08-30T03:41:13;15.20;99.90
12853;DHT22;6495;51.808;7.478;2023-08-30T03:43:43;15.10;99.90
12853;DHT22;6495;51.808;7.478;2023-08-30T03:46:12;15.20;99.90
12853;DHT22;6495;51.808;7.478;2023-08-30T03:48:40;15.10;99.90
12853;DHT22;6495;51.808;7.478;2023-08-30T03:51:10;15.10;99.90
12853;DHT22;6495;51.808;7.478;2023-08-30T03:53:38;15.10;99.90
12853;DHT22;6495;51.808;7.478;2023-08-30T03:56:06;15.00;99.90
12853;DHT22;6495;51.808;7.478;2023-08-30T03:58:35;15.00;99.90
12853;DHT22;6495;51.808;7.478;2023-08-30T04:01:04;15.00;99.90
12853;DHT22;6495;51.808;7.478;2023-08-30T04:03:33;15.00;99.90
12853;DHT22;6495;51.808;7.478;2023-08-30T04:06:02;14.90;99.90
12853;DHT22;6495;51.808;7.478;2023-08-30T04:08:32;14.90;99.90
12853;DHT22;6495;51.808;7.478;2023-08-30T04:11:01;14.90;99.90
12853;DHT22;6495;51.808;7.478;2023-08-30T04:13:29;14.90;99.90
12853;DHT22;6495;51.808;7.478;2023-08-30T04:15:58;14.80;99.90
12853;DHT22;6495;51.808;7.478;2023-08-30T04:18:26;14.90;99.90
12853;DHT22;6495;51.808;7.478;2023-08-30T04:20:54;14.80;99.90
12853;DHT22;6495;51.808;7.478;2023-08-30T04:23:28;14.80;99.90
12853;DHT22;6495;51.808;7.478;2023-08-30T04:25:58;14.80;99.90
12853;DHT22;6495;51.808;7.478;2023-08-30T04:28:26;14.70;99.90
12853;DHT22;6495;51.808;7.478;2023-08-30T04:30:55;14.70;99.90
12853;DHT22;6495;51.808;7.478;2023-08-30T04:33:23;14.60;99.90
12853;DHT22;6495;51.808;7.478;2023-08-30T04:35:53;14.60;99.90
12853;DHT22;6495;51.808;7.478;2023-08-30T04:38:22;14.50;99.90
12853;DHT22;6495;51.808;7.478;2023-08-30T04:40:58;14.40;99.90
12853;DHT22;6495;51.808;7.478;2023-08-30T04:43:30;14.40;99.90
12853;DHT22;6495;51.808;7.478;2023-08-30T04:45:59;14.30;99.90
12853;DHT22;6495;51.808;7.478;2023-08-30T04:48:27;14.20;99.90
12853;DHT22;6495;51.808;7.478;2023-08-30T04:51:00;14.20;99.90
12853;DHT22;6495;51.808;7.478;2023-08-30T04:53:29;14.10;99.90
12853;DHT22;6495;51.808;7.478;2023-08-30T04:55:59;14.10;99.90
12853;DHT22;6495;51.808;7.478;2023-08-30T04:58:29;14.10;99.90
12853;DHT22;6495;51.808;7.478;2023-08-30T05:00:58;14.00;99.90
12853;DHT22;6495;51.808;7.478;2023-08-30T05:03:26;14.00;99.90
12853;DHT22;6495;51.808;7.478;2023-08-30T05:05:59;14.00;99.90
12853;DHT22;6495;51.808;7.478;2023-08-30T05:08:27;14.00;99.90
12853;DHT22;6495;51.808;7.478;2023-08-30T05:10:56;14.00;99.90
12853;DHT22;6495;51.808;7.478;2023-08-30T05:13:26;14.00;99.90
12853;DHT22;6495;51.808;7.478;2023-08-30T05:15:54;14.00;99.90
12853;DHT22;6495;51.808;7.478;2023-08-30T05:18:22;14.00;99.90
12853;DHT22;6495;51.808;7.478;2023-08-30T05:20:51;14.00;99.90
12853;DHT22;6495;51.808;7.478;2023-08-30T05:23:19;14.00;99.90
12853;DHT22;6495;51.808;7.478;2023-08-30T05:25:48;14.00;99.90
12853;DHT22;6495;51.808;7.478;2023-08-30T05:28:17;14.00;99.90
12853;DHT22;6495;51.808;7.478;2023-08-30T05:30:47;14.00;99.90
12853;DHT22;6495;51.808;7.478;2023-08-30T05:33:29;13.90;99.90
12853;DHT22;6495;51.808;7.478;2023-08-30T05:36:22;13.90;99.90
12853;DHT22;6495;51.808;7.478;2023-08-30T05:39:02;13.90;99.90
12853;DHT22;6495;51.808;7.478;2023-08-30T05:41:36;13.90;99.90
12853;DHT22;6495;51.808;7.478;2023-08-30T05:44:05;13.90;99.90
12853;DHT22;6495;51.808;7.478;2023-08-30T05:46:36;13.90;99.90
12853;DHT22;6495;51.808;7.478;2023-08-30T05:49:04;13.90;99.90
12853;DHT22;6495;51.808;7.478;2023-08-30T05:51:33;14.00;99.90
12853;DHT22;6495;51.808;7.478;2023-08-30T05:54:01;14.00;99.90
12853;DHT22;6495;51.808;7.478;2023-08-30T05:56:29;14.00;99.90
12853;DHT22;6495;51.808;7.478;2023-08-30T05:58:59;14.00;99.90
12853;DHT22;6495;51.808;7.478;2023-08-30T06:01:27;14.10;99.90
12853;DHT22;6495;51.808;7.478;2023-08-30T06:03:57;14.10;99.90
12853;DHT22;6495;51.808;7.478;2023-08-30T06:06:25;14.10;99.90
12853;DHT22;6495;51.808;7.478;2023-08-30T06:08:54;14.10;99.90
12853;DHT22;6495;51.808;7.478;2023-08-30T06:11:22;14.10;99.90
12853;DHT22;6495;51.808;7.478;2023-08-30T06:13:50;14.20;99.90
12853;DHT22;6495;51.808;7.478;2023-08-30T06:16:18;14.20;99.90
12853;DHT22;6495;51.808;7.478;2023-08-30T06:18:47;14.20;99.90
12853;DHT22;6495;51.808;7.478;2023-08-30T06:21:16;14.20;99.90
12853;DHT22;6495;51.808;7.478;2023-08-30T06:23:44;14.30;99.90
12853;DHT22;6495;51.808;7.478;2023-08-30T06:26:13;14.30;99.90
12853;DHT22;6495;51.808;7.478;2023-08-30T06:28:41;14.20;99.90
12853;DHT22;6495;51.808;7.478;2023-08-30T06:31:24;14.30;99.90
12853;DHT22;6495;51.808;7.478;2023-08-30T06:33:54;14.30;99.90
12853;DHT22;6495;51.808;7.478;2023-08-30T06:36:24;14.30;99.90
12853;DHT22;6495;51.808;7.478;2023-08-30T06:38:52;14.30;99.90
12853;DHT22;6495;51.808;7.478;2023-08-30T06:41:20;14.40;99.90
12853;DHT22;6495;51.808;7.478;2023-08-30T06:43:48;14.40;99.90
12853;DHT22;6495;51.808;7.478;2023-08-30T06:46:16;14.40;99.90
12853;DHT22;6495;51.808;7.478;2023-08-30T06:48:45;14.50;99.90
12853;DHT22;6495;51.808;7.478;2023-08-30T06:51:13;14.50;99.90
12853;DHT22;6495;51.808;7.478;2023-08-30T06:53:42;14.60;99.90
12853;DHT22;6495;51.808;7.478;2023-08-30T06:56:11;14.60;99.90
12853;DHT22;6495;51.808;7.478;2023-08-30T06:58:39;14.70;99.90
12853;DHT22;6495;51.808;7.478;2023-08-30T07:01:07;14.70;99.90
12853;DHT22;6495;51.808;7.478;2023-08-30T07:03:35;14.80;99.90
12853;DHT22;6495;51.808;7.478;2023-08-30T07:06:04;14.80;99.90
12853;DHT22;6495;51.808;7.478;2023-08-30T07:08:32;14.90;99.90
12853;DHT22;6495;51.808;7.478;2023-08-30T07:11:01;14.90;99.90
12853;DHT22;6495;51.808;7.478;2023-08-30T07:13:30;15.00;99.90
12853;DHT22;6495;51.808;7.478;2023-08-30T07:15:58;15.10;99.90
12853;DHT22;6495;51.808;7.478;2023-08-30T07:18:26;15.20;99.90
12853;DHT22;6495;51.808;7.478;2023-08-30T07:20:54;15.30;99.90
12853;DHT22;6495;51.808;7.478;2023-08-30T07:23:23;15.40;99.90
12853;DHT22;6495;51.808;7.478;2023-08-30T07:25:51;15.40;99.90
12853;DHT22;6495;51.808;7.478;2023-08-30T07:28:21;15.60;99.90
12853;DHT22;6495;51.808;7.478;2023-08-30T07:30:49;15.60;99.90
12853;DHT22;6495;51.808;7.478;2023-08-30T07:33:17;15.70;99.90
12853;DHT22;6495;51.808;7.478;2023-08-30T07:35:45;15.80;99.90
12853;DHT22;6495;51.808;7.478;2023-08-30T07:38:14;15.80;99.90
12853;DHT22;6495;51.808;7.478;2023-08-30T07:40:42;15.90;99.90
12853;DHT22;6495;51.808;7.478;2023-08-30T07:43:10;15.90;99.90
12853;DHT22;6495;51.808;7.478;2023-08-30T07:45:39;16.00;99.90
12853;DHT22;6495;51.808;7.478;2023-08-30T07:48:08;16.00;99.90
12853;DHT22;6495;51.808;7.478;2023-08-30T07:50:36;16.00;99.90
12853;DHT22;6495;51.808;7.478;2023-08-30T07:53:04;16.00;99.90
12853;DHT22;6495;51.808;7.478;2023-08-30T07:55:33;16.10;99.90
12853;DHT22;6495;51.808;7.478;2023-08-30T07:58:01;16.10;99.90
12853;DHT22;6495;51.808;7.478;2023-08-30T08:00:30;16.20;99.90
12853;DHT22;6495;51.808;7.478;2023-08-30T08:03:00;16.20;99.90
12853;DHT22;6495;51.808;7.478;2023-08-30T08:05:29;16.20;99.90
12853;DHT22;6495;51.808;7.478;2023-08-30T08:08:00;16.30;99.90
12853;DHT22;6495;51.808;7.478;2023-08-30T08:10:31;16.30;99.90
12853;DHT22;6495;51.808;7.478;2023-08-30T08:13:00;16.40;99.90
12853;DHT22;6495;51.808;7.478;2023-08-30T08:15:30;16.40;99.90
12853;DHT22;6495;51.808;7.478;2023-08-30T08:18:00;16.40;99.90
12853;DHT22;6495;51.808;7.478;2023-08-30T08:20:30;16.50;99.90
12853;DHT22;6495;51.808;7.478;2023-08-30T08:22:58;16.50;99.90
12853;DHT22;6495;51.808;7.478;2023-08-30T08:25:26;16.60;99.90
12853;DHT22;6495;51.808;7.478;2023-08-30T08:27:54;16.60;99.90
12853;DHT22;6495;51.808;7.478;2023-08-30T08:30:23;16.60;99.90
12853;DHT22;6495;51.808;7.478;2023-08-30T08:32:51;16.70;99.90
12853;DHT22;6495;51.808;7.478;2023-08-30T08:35:21;16.70;99.90
12853;DHT22;6495;51.808;7.478;2023-08-30T08:37:49;16.80;99.90
12853;DHT22;6495;51.808;7.478;2023-08-30T08:40:17;16.80;99.90
12853;DHT22;6495;51.808;7.478;2023-08-30T08:42:58;16.90;99.90
12853;DHT22;6495;51.808;7.478;2023-08-30T08:45:27;16.90;99.90
12853;DHT22;6495;51.808;7.478;2023-08-30T08:47:55;17.00;99.90
12853;DHT22;6495;51.808;7.478;2023-08-30T08:50:26;17.00;99.90
12853;DHT22;6495;51.808;7.478;2023-08-30T08:52:57;17.00;99.90
12853;DHT22;6495;51.808;7.478;2023-08-30T08:55:35;17.10;99.90
12853;DHT22;6495;51.808;7.478;2023-08-30T08:58:05;17.10;99.90
12853;DHT22;6495;51.808;7.478;2023-08-30T09:00:33;17.10;99.90
12853;DHT22;6495;51.808;7.478;2023-08-30T09:03:03;17.10;99.90
12853;DHT22;6495;51.808;7.478;2023-08-30T09:05:35;17.10;99.90
12853;DHT22;6495;51.808;7.478;2023-08-30T09:08:06;17.10;99.90
12853;DHT22;6495;51.808;7.478;2023-08-30T09:10:34;17.20;99.90
12853;DHT22;6495;51.808;7.478;2023-08-30T09:13:03;17.20;99.90
12853;DHT22;6495;51.808;7.478;2023-08-30T09:15:32;17.30;99.90
12853;DHT22;6495;51.808;7.478;2023-08-30T09:18:00;17.30;99.90
12853;DHT22;6495;51.808;7.478;2023-08-30T09:20:29;17.40;99.90
12853;DHT22;6495;51.808;7.478;2023-08-30T09:22:58;17.30;99.90
12853;DHT22;6495;51.808;7.478;2023-08-30T09:25:27;17.40;99.90
12853;DHT22;6495;51.808;7.478;2023-08-30T09:27:57;17.40;99.90
12853;DHT22;6495;51.808;7.478;2023-08-30T09:30:27;17.50;99.90
12853;DHT22;6495;51.808;7.478;2023-08-30T09:33:01;17.50;99.90
12853;DHT22;6495;51.808;7.478;2023-08-30T09:35:30;17.50;99.90
12853;DHT22;6495;51.808;7.478;2023-08-30T09:38:00;17.60;99.90
12853;DHT22;6495;51.808;7.478;2023-08-30T09:40:29;17.60;99.90
12853;DHT22;6495;51.808;7.478;2023-08-30T09:42:59;17.70;99.90
12853;DHT22;6495;51.808;7.478;2023-08-30T09:45:39;17.70;99.90
12853;DHT22;6495;51.808;7.478;2023-08-30T09:48:08;17.70;99.90
12853;DHT22;6495;51.808;7.478;2023-08-30T09:50:37;17.80;99.90
12853;DHT22;6495;51.808;7.478;2023-08-30T09:53:09;17.80;99.90
12853;DHT22;6495;51.808;7.478;2023-08-30T09:55:38;17.90;99.90
12853;DHT22;6495;51.808;7.478;2023-08-30T09:58:08;18.00;99.90
12853;DHT22;6495;51.808;7.478;2023-08-30T10:00:37;18.00;99.90
12853;DHT22;6495;51.808;7.478;2023-08-30T10:03:05;18.10;99.90
12853;DHT22;6495;51.808;7.478;2023-08-30T10:05:37;18.20;99.90
12853;DHT22;6495;51.808;7.478;2023-08-30T10:08:09;18.20;99.90
12853;DHT22;6495;51.808;7.478;2023-08-30T10:10:39;18.30;99.90
12853;DHT22;6495;51.808;7.478;2023-08-30T10:13:09;18.40;99.90
12853;DHT22;6495;51.808;7.478;2023-08-30T10:15:42;18.40;99.90
12853;DHT22;6495;51.808;7.478;2023-08-30T10:18:15;18.50;99.90
12853;DHT22;6495;51.808;7.478;2023-08-30T10:20:52;18.50;99.90
12853;DHT22;6495;51.808;7.478;2023-08-30T10:23:25;18.60;99.90
12853;DHT22;6495;51.808;7.478;2023-08-30T10:25:54;18.60;99.90
12853;DHT22;6495;51.808;7.478;2023-08-30T10:28:24;18.60;99.90
12853;DHT22;6495;51.808;7.478;2023-08-30T10:30:58;18.60;99.90
12853;DHT22;6495;51.808;7.478;2023-08-30T10:33:26;18.70;99.90
12853;DHT22;6495;51.808;7.478;2023-08-30T10:36:04;18.70;99.90
12853;DHT22;6495;51.808;7.478;2023-08-30T10:38:35;18.70;99.90
12853;DHT22;6495;51.808;7.478;2023-08-30T10:41:07;18.70;99.90
12853;DHT22;6495;51.808;7.478;2023-08-30T10:43:36;18.70;99.90
12853;DHT22;6495;51.808;7.478;2023-08-30T10:46:06;18.70;99.90
12853;DHT22;6495;51.808;7.478;2023-08-30T10:48:39;18.70;99.90
12853;DHT22;6495;51.808;7.478;2023-08-30T10:51:20;18.70;99.90
12853;DHT22;6495;51.808;7.478;2023-08-30T10:53:57;18.60;99.90
12853;DHT22;6495;51.808;7.478;2023-08-30T10:56:30;18.60;99.90
12853;DHT22;6495;51.808;7.478;2023-08-30T10:59:02;18.50;99.90
12853;DHT22;6495;51.808;7.478;2023-08-30T11:01:30;18.50;99.90
12853;DHT22;6495;51.808;7.478;2023-08-30T11:04:00;18.40;99.90
12853;DHT22;6495;51.808;7.478;2023-08-30T11:06:42;18.40;99.90
12853;DHT22;6495;51.808;7.478;2023-08-30T11:09:15;18.30;99.90
12853;DHT22;6495;51.808;7.478;2023-08-30T11:11:46;18.20;99.90
12853;DHT22;6495;51.808;7.478;2023-08-30T11:14:15;18.20;99.90
12853;DHT22;6495;51.808;7.478;2023-08-30T11:16:44;18.10;99.90
12853;DHT22;6495;51.808;7.478;2023-08-30T11:19:13;18.10;99.90
12853;DHT22;6495;51.808;7.478;2023-08-30T11:21:44;18.00;99.90
12853;DHT22;6495;51.808;7.478;2023-08-30T11:24:15;17.90;99.90
12853;DHT22;6495;51.808;7.478;2023-08-30T11:26:43;17.80;99.90
12853;DHT22;6495;51.808;7.478;2023-08-30T11:29:12;17.80;99.90
12853;DHT22;6495;51.808;7.478;2023-08-30T11:31:41;17.70;99.90
12853;DHT22;6495;51.808;7.478;2023-08-30T11:34:12;17.60;99.90
12853;DHT22;6495;51.808;7.478;2023-08-30T11:36:41;17.60;99.90
12853;DHT22;6495;51.808;7.478;2023-08-30T11:39:09;17.50;99.90
12853;DHT22;6495;51.808;7.478;2023-08-30T11:41:39;17.40;99.90
12853;DHT22;6495;51.808;7.478;2023-08-30T11:44:08;17.40;99.90
12853;DHT22;6495;51.808;7.478;2023-08-30T11:46:36;17.30;99.90
12853;DHT22;6495;51.808;7.478;2023-08-30T11:49:05;17.30;99.90
12853;DHT22;6495;51.808;7.478;2023-08-30T11:51:33;17.20;99.90
12853;DHT22;6495;51.808;7.478;2023-08-30T11:54:02;17.30;99.90
12853;DHT22;6495;51.808;7.478;2023-08-30T11:56:31;17.20;99.90
12853;DHT22;6495;51.808;7.478;2023-08-30T11:59:01;17.20;99.90
12853;DHT22;6495;51.808;7.478;2023-08-30T12:01:29;17.20;99.90
12853;DHT22;6495;51.808;7.478;2023-08-30T12:04:09;17.10;99.90
12853;DHT22;6495;51.808;7.478;2023-08-30T12:06:37;17.10;99.90
12853;DHT22;6495;51.808;7.478;2023-08-30T12:09:11;17.10;99.90
12853;DHT22;6495;51.808;7.478;2023-08-30T12:11:40;17.10;99.90
12853;DHT22;6495;51.808;7.478;2023-08-30T12:14:10;17.10;99.90
12853;DHT22;6495;51.808;7.478;2023-08-30T12:16:40;17.10;99.90
12853;DHT22;6495;51.808;7.478;2023-08-30T12:19:08;17.10;99.90
12853;DHT22;6495;51.808;7.478;2023-08-30T12:21:41;17.00;99.90
12853;DHT22;6495;51.808;7.478;2023-08-30T12:24:10;17.00;99.90
12853;DHT22;6495;51.808;7.478;2023-08-30T12:26:38;17.00;99.90
12853;DHT22;6495;51.808;7.478;2023-08-30T12:29:06;17.00;99.90
12853;DHT22;6495;51.808;7.478;2023-08-30T12:31:35;17.00;99.90
12853;DHT22;6495;51.808;7.478;2023-08-30T12:34:04;17.00;99.90
12853;DHT22;6495;51.808;7.478;2023-08-30T12:36:33;16.90;99.90
12853;DHT22;6495;51.808;7.478;2023-08-30T12:39:01;16.90;99.90
12853;DHT22;6495;51.808;7.478;2023-08-30T12:41:31;16.90;99.90
12853;DHT22;6495;51.808;7.478;2023-08-30T12:43:59;16.90;99.90
12853;DHT22;6495;51.808;7.478;2023-08-30T12:46:28;16.90;99.90
12853;DHT22;6495;51.808;7.478;2023-08-30T12:48:58;16.90;99.90
12853;DHT22;6495;51.808;7.478;2023-08-30T12:51:26;16.90;99.90
12853;DHT22;6495;51.808;7.478;2023-08-30T12:53:55;16.90;99.90
12853;DHT22;6495;51.808;7.478;2023-08-30T12:56:24;16.90;99.90
12853;DHT22;6495;51.808;7.478;2023-08-30T12:58:52;16.90;99.90
12853;DHT22;6495;51.808;7.478;2023-08-30T13:01:21;16.90;99.90
12853;DHT22;6495;51.808;7.478;2023-08-30T13:03:49;16.90;99.90
12853;DHT22;6495;51.808;7.478;2023-08-30T13:06:19;16.90;99.90
12853;DHT22;6495;51.808;7.478;2023-08-30T13:08:47;16.90;99.90
12853;DHT22;6495;51.808;7.478;2023-08-30T13:11:15;16.90;99.90
12853;DHT22;6495;51.808;7.478;2023-08-30T13:13:43;16.90;99.90
12853;DHT22;6495;51.808;7.478;2023-08-30T13:16:11;17.00;99.90
12853;DHT22;6495;51.808;7.478;2023-08-30T13:18:39;17.00;99.90
12853;DHT22;6495;51.808;7.478;2023-08-30T13:21:07;17.00;99.90
12853;DHT22;6495;51.808;7.478;2023-08-30T13:23:37;17.00;99.90
12853;DHT22;6495;51.808;7.478;2023-08-30T13:26:05;17.10;99.90
12853;DHT22;6495;51.808;7.478;2023-08-30T13:28:34;17.10;99.90
12853;DHT22;6495;51.808;7.478;2023-08-30T13:31:02;17.10;99.90
12853;DHT22;6495;51.808;7.478;2023-08-30T13:33:30;17.20;99.90
12853;DHT22;6495;51.808;7.478;2023-08-30T13:35:58;17.20;99.90
12853;DHT22;6495;51.808;7.478;2023-08-30T13:38:27;17.20;99.90
12853;DHT22;6495;51.808;7.478;2023-08-30T13:40:59;17.20;99.90
12853;DHT22;6495;51.808;7.478;2023-08-30T13:43:27;17.20;99.90
12853;DHT22;6495;51.808;7.478;2023-08-30T13:45:59;17.30;99.90
12853;DHT22;6495;51.808;7.478;2023-08-30T13:48:27;17.30;99.90
12853;DHT22;6495;51.808;7.478;2023-08-30T13:50:56;17.30;99.90
12853;DHT22;6495;51.808;7.478;2023-08-30T13:53:24;17.30;99.90
12853;DHT22;6495;51.808;7.478;2023-08-30T13:55:52;17.30;99.90
12853;DHT22;6495;51.808;7.478;2023-08-30T13:58:22;17.30;99.90
12853;DHT22;6495;51.808;7.478;2023-08-30T14:00:50;17.30;99.90
12853;DHT22;6495;51.808;7.478;2023-08-30T14:03:18;17.30;99.90
12853;DHT22;6495;51.808;7.478;2023-08-30T14:05:48;17.30;99.90
12853;DHT22;6495;51.808;7.478;2023-08-30T14:08:16;17.30;99.90
12853;DHT22;6495;51.808;7.478;2023-08-30T14:10:45;17.30;99.90
12853;DHT22;6495;51.808;7.478;2023-08-30T14:13:13;17.30;99.90
12853;DHT22;6495;51.808;7.478;2023-08-30T14:15:43;17.30;99.90
12853;DHT22;6495;51.808;7.478;2023-08-30T14:18:11;17.30;99.90
12853;DHT22;6495;51.808;7.478;2023-08-30T14:20:41;17.30;99.90
12853;DHT22;6495;51.808;7.478;2023-08-30T14:23:09;17.20;99.90
12853;DHT22;6495;51.808;7.478;2023-08-30T14:25:39;17.20;99.90
12853;DHT22;6495;51.808;7.478;2023-08-30T14:28:07;17.20;99.90
12853;DHT22;6495;51.808;7.478;2023-08-30T14:30:36;17.20;99.90
12853;DHT22;6495;51.808;7.478;2023-08-30T14:33:05;17.20;99.90
12853;DHT22;6495;51.808;7.478;2023-08-30T14:35:33;17.10;99.90
12853;DHT22;6495;51.808;7.478;2023-08-30T14:38:03;17.10;99.90
12853;DHT22;6495;51.808;7.478;2023-08-30T14:40:31;17.10;99.90
12853;DHT22;6495;51.808;7.478;2023-08-30T14:42:59;17.10;99.90
12853;DHT22;6495;51.808;7.478;2023-08-30T14:45:27;17.10;99.90
12853;DHT22;6495;51.808;7.478;2023-08-30T14:47:56;17.10;99.90
12853;DHT22;6495;51.808;7.478;2023-08-30T14:50:25;17.10;99.90
12853;DHT22;6495;51.808;7.478;2023-08-30T14:52:53;17.10;99.90
12853;DHT22;6495;51.808;7.478;2023-08-30T14:55:22;17.10;99.90
12853;DHT22;6495;51.808;7.478;2023-08-30T14:57:51;17.10;99.90
12853;DHT22;6495;51.808;7.478;2023-08-30T15:00:19;17.10;99.90
12853;DHT22;6495;51.808;7.478;2023-08-30T15:02:49;17.20;99.90
12853;DHT22;6495;51.808;7.478;2023-08-30T15:05:17;17.20;99.90
12853;DHT22;6495;51.808;7.478;2023-08-30T15:07:47;17.20;99.90
12853;DHT22;6495;51.808;7.478;2023-08-30T15:10:15;17.10;99.90
12853;DHT22;6495;51.808;7.478;2023-08-30T15:12:43;17.10;99.90
12853;DHT22;6495;51.808;7.478;2023-08-30T15:15:13;17.20;99.90
12853;DHT22;6495;51.808;7.478;2023-08-30T15:17:41;17.10;99.90
12853;DHT22;6495;51.808;7.478;2023-08-30T15:20:10;17.10;99.90
12853;DHT22;6495;51.808;7.478;2023-08-30T15:22:40;17.10;99.90
12853;DHT22;6495;51.808;7.478;2023-08-30T15:25:09;17.10;99.90
12853;DHT22;6495;51.808;7.478;2023-08-30T15:27:38;17.10;99.90
12853;DHT22;6495;51.808;7.478;2023-08-30T15:30:07;17.10;99.90
12853;DHT22;6495;51.808;7.478;2023-08-30T15:32:36;17.10;99.90
12853;DHT22;6495;51.808;7.478;2023-08-30T15:35:05;17.10;99.90
12853;DHT22;6495;51.808;7.478;2023-08-30T15:37:34;17.10;99.90
12853;DHT22;6495;51.808;7.478;2023-08-30T15:40:03;17.00;99.90
12853;DHT22;6495;51.808;7.478;2023-08-30T15:42:34;17.00;99.90
12853;DHT22;6495;51.808;7.478;2023-08-30T15:45:03;16.90;99.90
12853;DHT22;6495;51.808;7.478;2023-08-30T15:47:34;16.90;99.90
12853;DHT22;6495;51.808;7.478;2023-08-30T15:50:03;16.90;99.90
12853;DHT22;6495;51.808;7.478;2023-08-30T15:52:31;16.80;99.90
12853;DHT22;6495;51.808;7.478;2023-08-30T15:55:00;16.80;99.90
12853;DHT22;6495;51.808;7.478;2023-08-30T15:57:28;16.80;99.90
12853;DHT22;6495;51.808;7.478;2023-08-30T15:59:58;16.80;99.90